createdAt,value
2023-01-18T00:01:06.255Z,2.30
2023-01-18T00:03:34.424Z,2.35
2023-01-18T00:06:07.854Z,2.33
2023-01-18T00:08:36.990Z,2.30
2023-01-18T00:11:06.030Z,2.35
2023-01-18T00:13:33.860Z,2.25
2023-01-18T00:16:05.557Z,2.80
2023-01-18T00:18:33.015Z,2.58
2023-01-18T00:21:03.846Z,2.40
2023-01-18T00:23:31.022Z,2.50
2023-01-18T00:26:07.146Z,2.42
2023-01-18T00:28:34.339Z,2.60
2023-01-18T00:31:01.052Z,2.65
2023-01-18T00:33:27.659Z,2.63
2023-01-18T00:36:03.066Z,2.58
2023-01-18T00:38:30.218Z,2.72
2023-01-18T00:40:57.496Z,2.45
2023-01-18T00:43:39.845Z,2.53
2023-01-18T00:46:06.605Z,2.40
2023-01-18T00:48:33.932Z,2.40
2023-01-18T00:51:01.129Z,3.00
2023-01-18T00:53:28.272Z,2.50
2023-01-18T00:55:55.337Z,2.50
2023-01-18T00:58:21.991Z,2.78
2023-01-18T01:00:51.915Z,2.63
2023-01-18T01:03:22.308Z,2.58
2023-01-18T01:06:08.048Z,2.70
2023-01-18T01:08:34.688Z,2.83
2023-01-18T01:11:10.781Z,2.72
2023-01-18T01:13:56.955Z,2.78
2023-01-18T01:16:42.477Z,2.78
2023-01-18T01:19:27.732Z,2.60
2023-01-18T01:22:12.943Z,2.63
2023-01-18T01:24:58.212Z,2.50
2023-01-18T01:27:25.130Z,2.90
2023-01-18T01:29:52.819Z,2.70
2023-01-18T01:32:19.571Z,2.60
2023-01-18T01:34:46.634Z,2.80
2023-01-18T01:37:13.261Z,2.58
2023-01-18T01:39:40.464Z,3.03
2023-01-18T01:42:11.113Z,2.72
2023-01-18T01:44:45.442Z,2.70
2023-01-18T01:47:25.952Z,3.28
2023-01-18T01:49:59.117Z,3.00
2023-01-18T01:52:34.025Z,2.63
2023-01-18T01:55:15.865Z,2.53
2023-01-18T01:58:03.956Z,2.60
2023-01-18T02:00:30.970Z,3.08
2023-01-18T02:03:05.363Z,2.97
2023-01-18T02:05:35.943Z,3.00
2023-01-18T02:08:11.307Z,2.70
2023-01-18T02:10:38.961Z,2.70
2023-01-18T02:13:08.739Z,2.80
2023-01-18T02:15:48.062Z,2.65
2023-01-18T02:21:10.610Z,2.60
2023-01-18T02:24:06.684Z,3.33
2023-01-18T02:26:50.376Z,3.05
2023-01-18T02:29:41.818Z,2.90
2023-01-18T02:32:21.220Z,3.05
2023-01-18T02:37:39.870Z,2.70
2023-01-18T02:40:23.871Z,3.17
2023-01-18T02:43:09.185Z,2.92
2023-01-18T02:46:01.086Z,2.80
2023-01-18T02:48:35.052Z,2.70
2023-01-18T02:51:01.847Z,3.00
2023-01-18T02:53:30.149Z,2.80
2023-01-18T02:56:03.533Z,2.67
2023-01-18T02:58:51.278Z,2.88
2023-01-18T03:01:28.856Z,2.70
2023-01-18T03:04:00.997Z,2.75
2023-01-18T03:06:30.206Z,3.25
2023-01-18T03:08:58.985Z,2.60
2023-01-18T03:11:50.483Z,3.20
2023-01-18T03:14:36.488Z,2.92
2023-01-18T03:17:20.334Z,2.90
2023-01-18T03:20:07.828Z,2.58
2023-01-18T03:23:10.233Z,2.80
2023-01-18T03:25:41.255Z,2.90
2023-01-18T03:28:34.763Z,3.03
2023-01-18T03:31:24.588Z,3.05
2023-01-18T03:34:02.463Z,2.83
2023-01-18T03:36:34.543Z,2.80
2023-01-18T03:39:11.842Z,2.63
2023-01-18T03:41:43.525Z,3.10
2023-01-18T03:44:22.078Z,2.65
2023-01-18T03:46:49.108Z,2.77
2023-01-18T03:49:18.027Z,2.72
2023-01-18T03:51:55.962Z,2.95
2023-01-18T03:54:31.432Z,2.65
2023-01-18T03:57:04.548Z,3.13
2023-01-18T03:59:37.452Z,2.80
2023-01-18T04:02:06.416Z,3.42
2023-01-18T04:04:33.396Z,2.50
2023-01-18T04:07:00.106Z,2.65
2023-01-18T04:09:27.108Z,2.80
2023-01-18T04:11:53.979Z,3.20
2023-01-18T04:14:20.750Z,2.80
2023-01-18T04:16:47.375Z,2.70
2023-01-18T04:19:14.019Z,3.03
2023-01-18T04:21:43.283Z,2.92
2023-01-18T04:24:11.308Z,3.05
2023-01-18T04:26:38.502Z,2.60
2023-01-18T04:29:05.667Z,2.97
2023-01-18T04:31:32.639Z,2.83
2023-01-18T04:33:59.312Z,2.75
2023-01-18T04:36:26.467Z,3.10
2023-01-18T04:38:54.506Z,3.00
2023-01-18T04:41:21.767Z,2.75
2023-01-18T04:43:48.547Z,3.00
2023-01-18T04:46:15.569Z,3.03
2023-01-18T04:48:42.849Z,3.20
2023-01-18T04:51:16.146Z,3.08
2023-01-18T04:53:44.035Z,2.65
2023-01-18T04:56:11.361Z,2.78
2023-01-18T04:58:38.353Z,2.60
2023-01-18T05:01:07.503Z,2.40
2023-01-18T05:03:38.318Z,2.80
2023-01-18T05:06:07.126Z,2.85
2023-01-18T05:08:34.378Z,2.88
2023-01-18T05:11:06.436Z,2.70
2023-01-18T05:13:33.608Z,2.78
2023-01-18T05:16:03.887Z,2.75
2023-01-18T05:18:32.477Z,2.92
2023-01-18T05:20:59.315Z,2.95
2023-01-18T05:23:26.153Z,3.20
2023-01-18T05:25:57.765Z,2.80
2023-01-18T05:28:27.482Z,3.28
2023-01-18T05:30:58.094Z,2.78
2023-01-18T05:33:24.918Z,3.28
2023-01-18T05:35:55.542Z,2.65
2023-01-18T05:38:23.125Z,2.72
2023-01-18T05:40:53.049Z,2.90
2023-01-18T05:43:24.559Z,3.13
2023-01-18T05:45:51.290Z,3.00
2023-01-18T05:48:18.503Z,2.78
2023-01-18T05:50:47.108Z,2.83
2023-01-18T05:53:15.659Z,2.80
2023-01-18T05:55:42.354Z,3.47
2023-01-18T05:58:09.526Z,2.60
2023-01-18T06:00:36.374Z,3.08
2023-01-18T06:03:03.439Z,3.00
2023-01-18T06:05:30.563Z,3.08
2023-01-18T06:07:57.181Z,2.90
2023-01-18T06:10:24.041Z,3.38
2023-01-18T06:12:51.022Z,3.05
2023-01-18T06:15:17.591Z,3.55
2023-01-18T06:17:47.055Z,2.78
2023-01-18T06:20:14.392Z,2.90
2023-01-18T06:22:41.328Z,3.08
2023-01-18T06:25:10.001Z,2.80
2023-01-18T06:27:38.983Z,3.10
2023-01-18T06:30:06.982Z,2.92
2023-01-18T06:32:33.972Z,2.88
2023-01-18T06:35:00.559Z,3.45
2023-01-18T06:37:27.356Z,2.90
2023-01-18T06:39:54.107Z,2.90
2023-01-18T06:42:20.718Z,2.70
2023-01-18T06:44:47.507Z,3.10
2023-01-18T06:47:18.785Z,2.92
2023-01-18T06:49:48.919Z,2.70
2023-01-18T06:52:16.251Z,2.80
2023-01-18T06:54:44.938Z,2.72
2023-01-18T06:57:12.423Z,2.85
2023-01-18T06:59:39.969Z,3.15
2023-01-18T07:02:07.479Z,2.53
2023-01-18T07:04:37.943Z,3.13
2023-01-18T07:07:04.819Z,2.40
2023-01-18T07:09:31.440Z,2.85
2023-01-18T07:11:58.100Z,2.80
2023-01-18T07:14:24.766Z,2.90
2023-01-18T07:16:51.417Z,2.38
2023-01-18T07:19:18.147Z,2.85
2023-01-18T07:21:48.291Z,2.58
2023-01-18T07:24:15.133Z,2.75
2023-01-18T07:26:41.978Z,2.90
2023-01-18T07:29:09.198Z,2.70
2023-01-18T07:31:38.200Z,2.90
2023-01-18T07:34:05.026Z,2.75
2023-01-18T07:36:31.678Z,3.15
2023-01-18T07:38:58.382Z,2.80
2023-01-18T07:41:26.171Z,2.58
2023-01-18T07:43:53.931Z,2.90
2023-01-18T07:46:20.887Z,2.70
2023-01-18T07:48:48.422Z,3.00
2023-01-18T07:51:15.713Z,2.83
2023-01-18T07:53:42.493Z,2.90
2023-01-18T07:56:13.750Z,2.80
2023-01-18T07:58:40.592Z,2.75
2023-01-18T08:01:13.271Z,2.85
2023-01-18T08:03:41.672Z,2.95
2023-01-18T08:06:09.075Z,2.70
2023-01-18T08:08:36.977Z,2.90
2023-01-18T08:11:06.119Z,2.85
2023-01-18T08:13:33.299Z,2.78
2023-01-18T08:16:01.996Z,2.70
2023-01-18T08:18:29.066Z,3.20
2023-01-18T08:20:56.168Z,2.67
2023-01-18T08:23:23.155Z,2.70
2023-01-18T08:25:50.019Z,2.58
2023-01-18T08:28:17.707Z,2.95
2023-01-18T08:30:47.526Z,2.70
2023-01-18T08:33:15.072Z,2.85
2023-01-18T08:35:44.508Z,3.08
2023-01-18T08:40:39.110Z,2.75
2023-01-18T08:43:06.295Z,2.72
2023-01-18T08:45:35.054Z,3.22
2023-01-18T08:48:04.400Z,2.72
2023-01-18T08:53:00.323Z,2.63
2023-01-18T08:55:27.778Z,2.97
2023-01-18T08:57:56.798Z,3.13
2023-01-18T09:00:26.931Z,2.53
2023-01-18T09:02:54.202Z,2.63
2023-01-18T09:05:20.964Z,3.05
2023-01-18T09:07:47.726Z,3.05
2023-01-18T09:10:14.956Z,2.40
2023-01-18T09:12:41.713Z,2.90
2023-01-18T09:15:09.553Z,2.88
2023-01-18T09:17:36.276Z,3.08
2023-01-18T09:20:03.265Z,2.80
2023-01-18T09:22:30.039Z,3.40
2023-01-18T09:24:57.575Z,3.05
2023-01-18T09:27:24.382Z,2.65
2023-01-18T09:29:52.424Z,2.65
2023-01-18T09:32:20.051Z,3.10
2023-01-18T09:34:50.770Z,2.80
2023-01-18T09:37:19.110Z,2.80
2023-01-18T09:39:51.984Z,2.88
2023-01-18T09:42:25.369Z,3.05
2023-01-18T09:44:58.651Z,2.60
2023-01-18T09:47:28.686Z,2.90
2023-01-18T09:50:02.338Z,2.65
2023-01-18T09:52:35.120Z,2.72
2023-01-18T09:55:48.174Z,2.60
2023-01-18T09:58:24.306Z,2.53
2023-01-18T10:00:51.501Z,2.97
2023-01-18T10:03:26.984Z,2.40
2023-01-18T10:06:08.968Z,2.95
2023-01-18T10:08:45.489Z,2.72
2023-01-18T10:11:37.836Z,3.00
2023-01-18T10:14:15.332Z,2.70
2023-01-18T10:16:42.165Z,2.65
2023-01-18T10:19:21.759Z,2.50
2023-01-18T10:21:58.857Z,2.72
2023-01-18T10:24:31.558Z,2.90
2023-01-18T10:27:20.203Z,2.70
2023-01-18T10:29:54.893Z,2.72
2023-01-18T10:32:25.199Z,3.05
2023-01-18T10:34:52.596Z,3.05
2023-01-18T10:37:45.346Z,2.78
2023-01-18T10:40:14.694Z,3.00
2023-01-18T10:45:27.787Z,3.08
2023-01-18T10:47:56.660Z,2.63
2023-01-18T10:50:29.491Z,2.70
2023-01-18T10:52:56.735Z,2.63
2023-01-18T10:55:23.910Z,2.78
2023-01-18T10:57:54.143Z,3.08
2023-01-18T11:00:22.828Z,2.75
2023-01-18T11:02:52.190Z,2.83
2023-01-18T11:08:11.712Z,2.60
2023-01-18T11:10:39.223Z,3.22
2023-01-18T11:13:25.011Z,2.70
2023-01-18T11:16:13.769Z,2.65
2023-01-18T11:18:55.641Z,2.55
2023-01-18T11:21:23.825Z,2.80
2023-01-18T11:23:53.198Z,2.78
2023-01-18T11:26:23.432Z,2.85
2023-01-18T11:29:01.979Z,2.90
2023-01-18T11:31:47.655Z,3.10
2023-01-18T11:34:27.081Z,2.85
2023-01-18T11:36:55.406Z,2.78
2023-01-18T11:39:35.678Z,3.17
2023-01-18T11:42:22.715Z,2.70
2023-01-18T11:45:14.694Z,3.08
2023-01-18T11:48:03.645Z,2.58
2023-01-18T11:50:36.113Z,2.60
2023-01-18T11:53:11.929Z,2.83
2023-01-18T11:55:47.642Z,2.67
2023-01-18T11:58:28.776Z,2.65
2023-01-18T12:01:24.085Z,2.80
2023-01-18T12:04:12.012Z,2.53
2023-01-18T12:06:41.713Z,2.35
2023-01-18T12:09:33.964Z,2.92
2023-01-18T12:12:19.320Z,2.50
2023-01-18T12:14:46.464Z,2.67
2023-01-18T12:17:13.272Z,2.60
2023-01-18T12:20:00.989Z,2.45
2023-01-18T12:22:58.871Z,2.55
2023-01-18T12:25:53.778Z,2.38
2023-01-18T12:28:56.614Z,2.42
2023-01-18T12:31:54.148Z,2.40
2023-01-18T12:34:38.348Z,2.38
2023-01-18T12:37:17.241Z,2.70
2023-01-18T12:40:21.572Z,2.30
2023-01-18T12:42:57.101Z,2.63
2023-01-18T12:45:42.087Z,2.60
2023-01-18T12:48:42.915Z,2.45
2023-01-18T12:51:23.189Z,2.47
2023-01-18T12:54:15.925Z,2.22
2023-01-18T12:56:47.960Z,2.40
2023-01-18T12:59:40.678Z,2.70
2023-01-18T13:02:16.259Z,2.25
2023-01-18T13:04:49.868Z,2.40
2023-01-18T13:07:22.475Z,2.60
2023-01-18T13:09:50.763Z,2.35
2023-01-18T13:12:18.214Z,2.25
2023-01-18T13:15:07.943Z,2.58
2023-01-18T13:17:56.061Z,2.60
2023-01-18T13:20:37.233Z,2.58
2023-01-18T13:23:49.544Z,2.28
2023-01-18T13:26:25.882Z,2.08
2023-01-18T13:29:29.238Z,2.20
2023-01-18T13:31:56.994Z,2.58
2023-01-18T13:34:31.174Z,2.55
2023-01-18T13:37:13.298Z,2.65
2023-01-18T13:39:47.499Z,2.60
2023-01-18T13:42:14.067Z,2.33
2023-01-18T13:44:43.689Z,2.20
2023-01-18T13:47:45.857Z,2.40
2023-01-18T13:50:40.112Z,2.60
2023-01-18T13:53:15.893Z,2.10
2023-01-18T13:56:25.758Z,2.20
2023-01-18T13:58:55.532Z,2.55
2023-01-18T14:01:25.097Z,1.92
2023-01-18T14:03:54.079Z,2.22
2023-01-18T14:06:26.667Z,2.35
2023-01-18T14:08:56.972Z,2.17
2023-01-18T14:11:28.667Z,2.35
2023-01-18T14:13:55.518Z,2.28
2023-01-18T14:16:26.419Z,2.20
2023-01-18T14:19:10.705Z,1.98
2023-01-18T14:21:43.702Z,2.10
2023-01-18T14:24:42.865Z,2.25
2023-01-18T14:27:18.611Z,2.35
2023-01-18T14:29:55.123Z,2.05
2023-01-18T14:32:27.442Z,1.83
2023-01-18T14:34:59.750Z,2.00
2023-01-18T14:37:32.384Z,1.90
2023-01-18T14:40:06.314Z,2.03
2023-01-18T14:42:37.776Z,1.80
2023-01-18T14:45:05.818Z,1.83
2023-01-18T14:47:34.591Z,1.85
2023-01-18T14:50:04.108Z,1.63
2023-01-18T14:52:34.167Z,1.77
2023-01-18T14:55:01.269Z,1.80
2023-01-18T14:57:28.115Z,1.77
2023-01-18T15:00:04.439Z,1.98
2023-01-18T15:02:37.854Z,2.03
2023-01-18T15:05:22.374Z,1.90
2023-01-18T15:07:55.864Z,1.58
2023-01-18T15:10:24.283Z,1.98
2023-01-18T15:12:55.360Z,1.55
2023-01-18T15:15:38.313Z,1.65
2023-01-18T15:18:12.096Z,1.58
2023-01-18T15:21:02.508Z,1.90
2023-01-18T15:23:30.368Z,1.20
2023-01-18T15:25:57.934Z,1.50
2023-01-18T15:28:31.544Z,1.52
2023-01-18T15:31:01.184Z,1.58
2023-01-18T15:33:28.518Z,1.50
2023-01-18T15:36:01.816Z,1.70
2023-01-18T15:38:28.667Z,1.50
2023-01-18T15:41:10.996Z,1.50
2023-01-18T15:43:47.907Z,1.50
2023-01-18T15:46:17.239Z,1.17
2023-01-18T15:48:51.544Z,1.55
2023-01-18T15:51:22.582Z,1.40
2023-01-18T15:53:56.050Z,1.50
2023-01-18T15:56:26.714Z,1.45
2023-01-18T15:58:56.002Z,1.10
2023-01-18T16:04:06.928Z,1.30
2023-01-18T16:06:37.143Z,1.40
2023-01-18T16:09:12.048Z,1.33
2023-01-18T16:11:38.991Z,1.45
2023-01-18T16:14:18.998Z,1.30
2023-01-18T16:16:46.539Z,1.20
2023-01-18T16:19:21.111Z,1.25
2023-01-18T16:21:59.692Z,1.67
2023-01-18T16:24:30.620Z,1.40
2023-01-18T16:27:00.391Z,1.25
2023-01-18T16:29:27.254Z,1.50
2023-01-18T16:32:16.623Z,1.27
2023-01-18T16:37:10.181Z,1.30
2023-01-18T16:39:41.008Z,1.38
2023-01-18T16:42:10.219Z,1.10
2023-01-18T16:44:37.652Z,1.30
2023-01-18T16:47:04.756Z,1.17
2023-01-18T16:49:31.455Z,1.35
2023-01-18T16:51:58.171Z,1.30
2023-01-18T16:54:24.712Z,1.40
2023-01-18T16:56:51.307Z,1.50
2023-01-18T16:59:21.867Z,1.50
2023-01-18T17:01:49.506Z,1.40
2023-01-18T17:04:16.593Z,1.58
2023-01-18T17:06:44.606Z,1.35
2023-01-18T17:09:27.016Z,1.33
2023-01-18T17:11:53.868Z,1.10
2023-01-18T17:14:21.851Z,1.35
2023-01-18T17:16:49.497Z,1.20
2023-01-18T17:19:21.940Z,1.23
2023-01-18T17:21:50.496Z,1.75
2023-01-18T17:24:21.091Z,1.20
2023-01-18T17:26:47.894Z,1.35
2023-01-18T17:29:17.943Z,1.20
2023-01-18T17:31:52.111Z,1.33
2023-01-18T17:34:28.044Z,1.40
2023-01-18T17:36:58.070Z,1.30
2023-01-18T17:39:32.155Z,1.47
2023-01-18T17:42:12.276Z,1.50
2023-01-18T17:44:41.117Z,1.38
2023-01-18T17:47:07.816Z,1.48
2023-01-18T17:49:34.541Z,1.40
2023-01-18T17:52:01.277Z,1.30
2023-01-18T17:54:28.596Z,1.40
2023-01-18T17:56:55.363Z,1.30
2023-01-18T17:59:22.411Z,1.55
2023-01-18T18:01:49.229Z,1.30
2023-01-18T18:04:15.914Z,1.23
2023-01-18T18:06:53.386Z,1.20
2023-01-18T18:09:20.877Z,1.35
2023-01-18T18:11:47.601Z,1.33
2023-01-18T18:14:14.251Z,1.30
2023-01-18T18:16:43.427Z,1.30
2023-01-18T18:19:14.557Z,1.25
2023-01-18T18:21:45.874Z,1.50
2023-01-18T18:24:12.809Z,1.15
2023-01-18T18:26:39.933Z,1.63
2023-01-18T18:29:06.555Z,1.30
2023-01-18T18:31:33.496Z,1.30
2023-01-18T18:34:00.448Z,1.50
2023-01-18T18:36:27.700Z,1.23
2023-01-18T18:38:54.457Z,1.50
2023-01-18T18:41:21.311Z,1.20
2023-01-18T18:43:48.116Z,1.10
2023-01-18T18:46:15.100Z,1.50
2023-01-18T18:48:45.373Z,1.50
2023-01-18T18:51:30.224Z,1.35
2023-01-18T18:53:57.034Z,1.50
2023-01-18T18:56:23.841Z,1.30
2023-01-18T18:58:50.550Z,1.40
2023-01-18T19:01:29.430Z,1.40
2023-01-18T19:03:57.646Z,1.20
2023-01-18T19:06:25.804Z,1.17
2023-01-18T19:08:53.472Z,1.60
2023-01-18T19:11:20.792Z,1.20
2023-01-18T19:13:49.444Z,1.15
2023-01-18T19:16:17.020Z,1.38
2023-01-18T19:18:43.952Z,1.90
2023-01-18T19:21:11.104Z,1.67
2023-01-18T19:23:40.194Z,2.38
2023-01-18T19:26:06.866Z,2.00
2023-01-18T19:28:33.537Z,2.05
2023-01-18T19:31:05.158Z,2.30
2023-01-18T19:33:32.153Z,2.67
2023-01-18T19:36:05.940Z,2.05
2023-01-18T19:38:32.710Z,2.15
2023-01-18T19:41:03.032Z,2.20
2023-01-18T19:43:29.832Z,1.90
2023-01-18T19:45:59.079Z,2.10
2023-01-18T19:48:25.930Z,2.38
2023-01-18T19:50:52.809Z,1.73
2023-01-18T19:53:19.453Z,1.95
2023-01-18T19:55:46.102Z,1.90
2023-01-18T19:58:12.797Z,1.70
2023-01-18T20:00:41.333Z,1.80
2023-01-18T20:03:12.109Z,1.80
2023-01-18T20:05:42.720Z,1.70
2023-01-18T20:08:09.362Z,1.70
2023-01-18T20:10:36.205Z,1.77
2023-01-18T20:13:03.296Z,1.70
2023-01-18T20:15:30.219Z,1.80
2023-01-18T20:17:56.972Z,2.03
2023-01-18T20:20:31.824Z,1.95
2023-01-18T20:23:02.595Z,1.90
2023-01-18T20:25:30.539Z,1.75
2023-01-18T20:27:57.266Z,1.63
2023-01-18T20:30:24.206Z,2.10
2023-01-18T20:32:51.162Z,1.95
2023-01-18T20:35:17.959Z,1.55
2023-01-18T20:37:44.771Z,2.00
2023-01-18T20:40:12.153Z,1.77
2023-01-18T20:42:39.871Z,1.80
2023-01-18T20:45:07.287Z,1.90
2023-01-18T20:47:34.066Z,2.20
2023-01-18T20:50:00.884Z,1.77
2023-01-18T20:52:27.728Z,1.60
2023-01-18T20:54:54.875Z,1.63
2023-01-18T20:57:24.042Z,2.22
2023-01-18T20:59:50.957Z,1.90
2023-01-18T21:02:17.748Z,1.70
2023-01-18T21:04:44.550Z,1.90
2023-01-18T21:07:11.181Z,1.90
2023-01-18T21:09:37.956Z,1.88
2023-01-18T21:12:05.032Z,1.90
2023-01-18T21:14:31.715Z,1.83
2023-01-18T21:16:58.571Z,1.88
2023-01-18T21:19:25.796Z,1.77
2023-01-18T21:21:52.552Z,2.15
2023-01-18T21:24:19.450Z,2.05
2023-01-18T21:26:46.125Z,2.25
2023-01-18T21:29:13.040Z,2.22
2023-01-18T21:31:41.040Z,1.95
2023-01-18T21:34:07.999Z,3.13
2023-01-18T21:36:34.628Z,1.92
2023-01-18T21:39:01.194Z,1.90
2023-01-18T21:41:46.727Z,1.95
2023-01-18T21:44:32.139Z,1.75
2023-01-18T21:46:59.066Z,1.90
2023-01-18T21:50:15.632Z,1.92
2023-01-18T21:52:49.798Z,1.98
2023-01-18T21:55:16.950Z,1.80
2023-01-18T21:57:43.895Z,2.00
2023-01-18T22:00:11.659Z,2.13
2023-01-18T22:02:38.449Z,1.95
2023-01-18T22:05:05.978Z,1.88
2023-01-18T22:07:35.118Z,1.90
2023-01-18T22:10:05.461Z,1.92
2023-01-18T22:12:35.509Z,1.83
2023-01-18T22:17:30.388Z,2.10
2023-01-18T22:19:57.610Z,2.20
2023-01-18T22:22:24.549Z,1.90
2023-01-18T22:24:51.812Z,1.92
2023-01-18T22:27:18.612Z,1.80
2023-01-18T22:29:45.440Z,1.85
2023-01-18T22:32:16.271Z,1.95
2023-01-18T22:34:43.081Z,1.65
2023-01-18T22:37:10.460Z,1.85
2023-01-18T22:39:37.287Z,1.77
2023-01-18T22:42:04.115Z,1.90
2023-01-18T22:44:33.302Z,1.75
2023-01-18T22:47:00.426Z,2.05
2023-01-18T22:49:27.504Z,1.90
2023-01-18T22:51:54.178Z,1.70
2023-01-18T22:54:22.937Z,1.77
2023-01-18T22:56:49.897Z,1.67
2023-01-18T22:59:16.740Z,1.98
2023-01-18T23:01:43.313Z,1.60
2023-01-18T23:04:10.396Z,1.80
2023-01-18T23:06:46.599Z,1.70
2023-01-18T23:09:15.502Z,1.58
2023-01-18T23:11:42.306Z,1.77
2023-01-18T23:14:27.531Z,1.77
2023-01-18T23:17:13.103Z,1.60
2023-01-18T23:19:39.809Z,1.70
2023-01-18T23:22:10.625Z,1.48
2023-01-18T23:24:38.131Z,1.80
2023-01-18T23:27:06.799Z,1.60
2023-01-18T23:29:33.820Z,1.70
2023-01-18T23:32:00.633Z,1.45
2023-01-18T23:34:27.478Z,1.60
2023-01-18T23:36:54.202Z,2.00
2023-01-18T23:39:39.478Z,1.63
2023-01-18T23:42:24.933Z,1.60
2023-01-18T23:45:10.397Z,1.70
2023-01-18T23:47:55.458Z,1.55
2023-01-18T23:50:41.396Z,1.77
2023-01-18T23:53:31.056Z,1.55
2023-01-18T23:55:58.432Z,1.60
2023-01-18T23:58:25.617Z,1.60
